createdAt,value
2017-12-04T00:00:15.277Z,38.2
2017-12-04T00:01:16.882Z,38.5
2017-12-04T00:02:18.482Z,38.2
2017-12-04T00:03:20.101Z,38.4
2017-12-04T00:04:21.694Z,38.4
2017-12-04T00:05:23.600Z,38.5
2017-12-04T00:06:25.486Z,38.2
2017-12-04T00:07:27.105Z,38.4
2017-12-04T00:08:29.008Z,38.7
2017-12-04T00:09:30.615Z,38.3
2017-12-04T00:10:31.942Z,38.2
2017-12-04T00:11:33.582Z,38.1
2017-12-04T00:12:35.200Z,38.4
2017-12-04T00:13:36.818Z,38.7
2017-12-04T00:14:38.139Z,38.1
2017-12-04T00:15:40.032Z,38.4
2017-12-04T00:16:41.677Z,38.4
2017-12-04T00:17:43.297Z,38.4
2017-12-04T00:18:45.191Z,38.4
2017-12-04T00:19:46.807Z,38.3
2017-12-04T00:20:48.427Z,38.3
2017-12-04T00:21:50.321Z,38.4
2017-12-04T00:22:52.218Z,38.1
2017-12-04T00:23:54.115Z,38.1
2017-12-04T00:24:56.009Z,38.5
2017-12-04T00:25:57.628Z,38.4
2017-12-04T00:26:59.523Z,38.5
2017-12-04T00:28:01.419Z,38.4
2017-12-04T00:29:03.315Z,38.5
2017-12-04T00:30:04.934Z,38.6
2017-12-04T00:31:06.829Z,38.6
2017-12-04T00:32:07.875Z,38.2
2017-12-04T00:33:09.767Z,38.1
2017-12-04T00:34:11.088Z,38
2017-12-04T00:35:12.985Z,38.1
2017-12-04T00:36:14.899Z,38.4
2017-12-04T00:37:16.517Z,38.6
2017-12-04T00:38:17.559Z,38.4
2017-12-04T00:39:19.161Z,38.5
2017-12-04T00:40:20.480Z,38.1
2017-12-04T00:41:22.097Z,38
2017-12-04T00:42:24.022Z,38.6
2017-12-04T00:43:25.914Z,38.7
2017-12-04T00:44:27.811Z,38.6
2017-12-04T00:45:29.429Z,38.5
2017-12-04T00:46:31.324Z,38.5
2017-12-04T00:47:32.370Z,38.2
2017-12-04T00:48:34.267Z,38.5
2017-12-04T00:49:35.862Z,38
2017-12-04T00:50:37.496Z,38.4
2017-12-04T00:51:39.392Z,38.4
2017-12-04T00:52:41.300Z,38
2017-12-04T00:53:42.922Z,38.2
2017-12-04T00:54:44.242Z,38.4
2017-12-04T00:55:46.138Z,38.6
2017-12-04T00:56:47.756Z,38.2
2017-12-04T00:57:49.350Z,38.2
2017-12-04T00:58:50.696Z,38.1
2017-12-04T00:59:52.038Z,38.5
2017-12-04T01:00:53.636Z,38.6
2017-12-04T01:01:55.259Z,38.6
2017-12-04T01:02:57.154Z,37.9
2017-12-04T01:03:58.775Z,38.2
2017-12-04T01:05:00.121Z,38.1
2017-12-04T01:06:01.461Z,38.5
2017-12-04T01:07:03.080Z,38.4
2017-12-04T01:08:04.676Z,38.1
2017-12-04T01:09:06.293Z,38.6
2017-12-04T01:10:08.188Z,38.5
2017-12-04T01:11:09.810Z,38.1
2017-12-04T01:12:11.712Z,38.5
2017-12-04T01:13:13.326Z,38.5
2017-12-04T01:14:14.365Z,38.5
2017-12-04T01:15:15.705Z,38.5
2017-12-04T01:16:17.322Z,38.5
2017-12-04T01:17:18.942Z,38.2
2017-12-04T01:18:20.542Z,38.1
2017-12-04T01:19:22.139Z,38.5
2017-12-04T01:20:23.757Z,38
2017-12-04T01:21:25.102Z,38.7
2017-12-04T01:22:26.701Z,38.5
2017-12-04T01:23:28.296Z,38.6
2017-12-04T01:24:29.913Z,38.6
2017-12-04T01:25:31.273Z,38
2017-12-04T01:26:32.613Z,38.3
2017-12-04T01:27:34.236Z,38.4
2017-12-04T01:28:35.846Z,38.5
2017-12-04T01:29:37.461Z,38.5
2017-12-04T01:30:39.081Z,38.5
2017-12-04T01:31:40.679Z,38.4
2017-12-04T01:32:42.327Z,38.4
2017-12-04T01:33:43.638Z,38.4
2017-12-04T01:34:45.530Z,38.3
2017-12-04T01:35:46.873Z,38.4
2017-12-04T01:36:48.766Z,38.6
2017-12-04T01:37:50.363Z,38.2
2017-12-04T01:38:51.706Z,38.2
2017-12-04T01:39:52.773Z,38.2
2017-12-04T01:40:54.393Z,38.1
2017-12-04T01:41:56.290Z,38.4
2017-12-04T01:42:57.886Z,38.4
2017-12-04T01:43:59.509Z,38.2
2017-12-04T01:45:01.409Z,38.2
2017-12-04T01:46:02.745Z,38.2
2017-12-04T01:47:04.638Z,38.4
2017-12-04T01:48:06.255Z,38.3
2017-12-04T01:49:07.577Z,38.4
2017-12-04T01:50:09.473Z,38.4
2017-12-04T01:51:11.072Z,38.2
2017-12-04T01:52:12.968Z,38.3
2017-12-04T01:53:14.586Z,38.1
2017-12-04T01:54:15.926Z,38.6
2017-12-04T01:55:17.250Z,38.4
2017-12-04T01:56:18.885Z,38.4
2017-12-04T01:57:20.209Z,38.6
2017-12-04T01:58:21.553Z,38.4
2017-12-04T01:59:23.170Z,38.3
2017-12-04T02:00:24.791Z,38.3
2017-12-04T02:01:26.110Z,38.2
2017-12-04T02:02:27.728Z,38.4
2017-12-04T02:03:29.347Z,38.5
2017-12-04T02:04:30.980Z,38.5
2017-12-04T02:05:32.303Z,38.3
2017-12-04T02:06:34.199Z,38.2
2017-12-04T02:07:35.814Z,38.4
2017-12-04T02:08:37.712Z,38.3
2017-12-04T02:09:39.330Z,38.2
2017-12-04T02:10:40.960Z,38.3
2017-12-04T02:11:42.560Z,38.2
2017-12-04T02:12:44.157Z,37.9
2017-12-04T02:13:45.753Z,38.5
2017-12-04T02:14:47.349Z,38.2
2017-12-04T02:15:48.967Z,38.5
2017-12-04T02:16:50.588Z,38.2
2017-12-04T02:17:52.481Z,38.2
2017-12-04T02:18:54.100Z,38.3
2017-12-04T02:19:55.440Z,38.3
2017-12-04T02:20:57.336Z,37.9
2017-12-04T02:21:59.231Z,38.4
2017-12-04T02:23:00.851Z,37.9
2017-12-04T02:24:02.478Z,37.9
2017-12-04T02:25:04.101Z,38.4
2017-12-04T02:26:05.997Z,38.3
2017-12-04T02:27:07.335Z,38.4
2017-12-04T02:28:09.231Z,38.2
2017-12-04T02:29:10.830Z,38.3
2017-12-04T02:30:12.449Z,38.3
2017-12-04T02:31:14.066Z,38.2
2017-12-04T02:32:15.960Z,37.9
2017-12-04T02:33:17.311Z,38.6
2017-12-04T02:34:19.207Z,38.3
2017-12-04T02:35:21.109Z,38.2
2017-12-04T02:36:22.720Z,38.4
2017-12-04T02:37:24.620Z,38.3
2017-12-04T02:38:26.513Z,38.5
2017-12-04T02:39:28.135Z,38.4
2017-12-04T02:40:29.754Z,38
2017-12-04T02:41:31.371Z,38.4
2017-12-04T02:42:33.045Z,38
2017-12-04T02:43:34.664Z,38
2017-12-04T02:44:36.280Z,38.5
2017-12-04T02:45:38.182Z,38.2
2017-12-04T02:46:39.797Z,38.5
2017-12-04T02:47:41.119Z,38.5
2017-12-04T02:48:42.735Z,38.5
2017-12-04T02:49:44.353Z,38.2
2017-12-04T02:50:45.969Z,38.6
2017-12-04T02:51:47.587Z,38.2
2017-12-04T02:52:49.206Z,38.4
2017-12-04T02:53:50.825Z,38.4
2017-12-04T02:54:52.443Z,38.5
2017-12-04T02:55:53.771Z,38.4
2017-12-04T02:56:55.368Z,38.7
2017-12-04T02:57:56.989Z,38.7
2017-12-04T02:58:58.308Z,38.4
2017-12-04T03:00:00.207Z,38.4
2017-12-04T03:01:01.824Z,38.6
2017-12-04T03:02:02.865Z,38.4
2017-12-04T03:03:04.186Z,38.5
2017-12-04T03:04:05.230Z,38.4
2017-12-04T03:05:06.849Z,38.3
2017-12-04T03:06:07.912Z,38.7
2017-12-04T03:07:09.255Z,38.4
2017-12-04T03:08:11.152Z,38.3
2017-12-04T03:09:12.470Z,38.4
2017-12-04T03:10:13.814Z,38.4
2017-12-04T03:11:15.427Z,38.6
2017-12-04T03:12:16.470Z,38.4
2017-12-04T03:13:18.366Z,38.6
2017-12-04T03:14:19.710Z,38.5
2017-12-04T03:15:21.325Z,38.6
2017-12-04T03:16:22.395Z,38.6
2017-12-04T03:17:23.455Z,38.4
2017-12-04T03:18:25.352Z,38.6
2017-12-04T03:19:27.248Z,38.5
2017-12-04T03:20:28.847Z,38.6
2017-12-04T03:21:30.742Z,38.5
2017-12-04T03:22:32.675Z,38.4
2017-12-04T03:23:33.995Z,38.5
2017-12-04T03:24:35.037Z,38.7
2017-12-04T03:25:36.959Z,38.8
2017-12-04T03:26:38.856Z,38.5
2017-12-04T03:27:40.455Z,38.4
2017-12-04T03:28:42.362Z,38.5
2017-12-04T03:29:43.702Z,38.8
2017-12-04T03:30:45.636Z,38.5
2017-12-04T03:31:47.530Z,38.5
2017-12-04T03:32:49.443Z,38.7
2017-12-04T03:33:51.379Z,38.6
2017-12-04T03:34:52.726Z,38.7
2017-12-04T03:35:54.345Z,38.5
2017-12-04T03:36:55.962Z,38.4
2017-12-04T03:37:57.303Z,38.4
2017-12-04T03:38:58.651Z,38.4
2017-12-04T03:40:00.265Z,38.4
2017-12-04T03:41:01.596Z,38.3
2017-12-04T03:42:02.918Z,38.6
2017-12-04T03:43:04.519Z,38.4
2017-12-04T03:44:05.858Z,38.4
2017-12-04T03:45:07.756Z,38.4
2017-12-04T03:46:09.100Z,38.5
2017-12-04T03:47:10.997Z,38.4
2017-12-04T03:48:12.366Z,38.5
2017-12-04T03:49:13.408Z,38.6
2017-12-04T03:50:14.750Z,38.6
2017-12-04T03:51:16.068Z,38.5
2017-12-04T03:52:17.688Z,38.7
2017-12-04T03:53:19.586Z,38.5
2017-12-04T03:54:21.483Z,38.3
2017-12-04T03:55:23.383Z,38.4
2017-12-04T03:56:25.277Z,38.5
2017-12-04T03:57:26.896Z,38.6
2017-12-04T03:58:28.794Z,38.5
2017-12-04T03:59:30.693Z,38.6
2017-12-04T04:00:32.295Z,38.6
2017-12-04T04:01:33.361Z,38.5
2017-12-04T04:02:35.255Z,38.7
2017-12-04T04:03:36.873Z,38.5
2017-12-04T04:04:38.492Z,38.7
2017-12-04T04:05:40.109Z,38.7
2017-12-04T04:06:41.769Z,38.6
2017-12-04T04:07:43.368Z,38.6
2017-12-04T04:08:45.261Z,38.6
2017-12-04T04:09:47.158Z,38.5
2017-12-04T04:10:49.054Z,38.7
2017-12-04T04:11:50.953Z,38.6
2017-12-04T04:12:52.570Z,38.5
2017-12-04T04:13:54.464Z,38.4
2017-12-04T04:14:56.360Z,38.4
2017-12-04T04:15:58.254Z,38.4
2017-12-04T04:16:59.596Z,38.3
2017-12-04T04:18:01.490Z,38.5
2017-12-04T04:19:02.834Z,38.4
2017-12-04T04:20:04.454Z,38.3
2017-12-04T04:21:05.798Z,38.4
2017-12-04T04:22:07.395Z,38.5
2017-12-04T04:23:08.436Z,38.4
2017-12-04T04:24:10.058Z,38.3
2017-12-04T04:25:11.675Z,38.3
2017-12-04T04:26:13.636Z,38.5
2017-12-04T04:27:15.255Z,38.2
2017-12-04T04:28:16.874Z,38.5
2017-12-04T04:29:18.771Z,38.4
2017-12-04T04:30:20.669Z,38.2
2017-12-04T04:31:22.291Z,37.9
2017-12-04T04:32:24.187Z,38.4
2017-12-04T04:33:26.086Z,38.1
2017-12-04T04:34:27.684Z,38.2
2017-12-04T04:35:29.304Z,38
2017-12-04T04:36:31.245Z,38.4
2017-12-04T04:37:33.138Z,37.9
2017-12-04T04:38:34.763Z,38.3
2017-12-04T04:39:36.102Z,38.4
2017-12-04T04:40:37.726Z,38.5
2017-12-04T04:41:39.664Z,38.4
2017-12-04T04:42:41.561Z,38.1
2017-12-04T04:43:42.888Z,38.4
2017-12-04T04:44:44.506Z,38
2017-12-04T04:45:45.825Z,38.4
2017-12-04T04:46:47.502Z,38.5
2017-12-04T04:47:48.843Z,37.9
2017-12-04T04:48:50.466Z,38.3
2017-12-04T04:49:52.084Z,38.2
2017-12-04T04:50:53.402Z,38.4
2017-12-04T04:51:54.720Z,38.2
2017-12-04T04:52:56.316Z,38.4
2017-12-04T04:53:57.938Z,38.5
2017-12-04T04:54:59.837Z,38.1
2017-12-04T04:56:01.156Z,38.4
2017-12-04T04:57:03.054Z,38.3
2017-12-04T04:58:04.373Z,38.4
2017-12-04T04:59:05.716Z,38.6
2017-12-04T05:00:07.615Z,38.5
2017-12-04T05:01:08.692Z,38.3
2017-12-04T05:02:10.587Z,38.6
2017-12-04T05:03:12.186Z,38.5
2017-12-04T05:04:13.802Z,38.6
2017-12-04T05:05:15.122Z,38.7
2017-12-04T05:06:16.744Z,38.8
2017-12-04T05:07:18.343Z,38.6
2017-12-04T05:08:20.239Z,38.5
2017-12-04T05:09:21.839Z,38.6
2017-12-04T05:10:23.468Z,38.5
2017-12-04T05:11:25.370Z,38.5
2017-12-04T05:12:27.004Z,38.4
2017-12-04T05:13:28.622Z,38.5
2017-12-04T05:14:30.217Z,38.5
2017-12-04T05:15:32.113Z,38.6
2017-12-04T05:16:33.729Z,38.6
2017-12-04T05:17:35.069Z,38.5
2017-12-04T05:18:36.412Z,38.3
2017-12-04T05:19:37.754Z,38.6
2017-12-04T05:20:39.095Z,38.4
2017-12-04T05:21:40.434Z,38.3
2017-12-04T05:22:41.780Z,38.5
2017-12-04T05:23:43.679Z,38.5
2017-12-04T05:24:45.014Z,38.3
2017-12-04T05:25:46.627Z,38.4
2017-12-04T05:26:48.525Z,38.8
2017-12-04T05:27:50.422Z,38.9
2017-12-04T05:28:51.765Z,38.9
2017-12-04T05:29:53.661Z,38.9
2017-12-04T05:30:55.262Z,38.5
2017-12-04T05:31:56.886Z,38.9
2017-12-04T05:32:58.481Z,38.9
2017-12-04T05:34:00.098Z,38.5
2017-12-04T05:35:01.416Z,38.4
2017-12-04T05:36:02.759Z,38.8
2017-12-04T05:37:04.654Z,38.8
2017-12-04T05:38:06.274Z,38.4
2017-12-04T05:39:07.652Z,38.4
2017-12-04T05:40:08.994Z,38.4
2017-12-04T05:41:10.347Z,38.4
2017-12-04T05:42:12.243Z,38.4
2017-12-04T05:43:13.841Z,38.9
2017-12-04T05:44:15.456Z,38.8
2017-12-04T05:45:17.354Z,38.9
2017-12-04T05:46:19.251Z,38.8
2017-12-04T05:47:20.872Z,38.6
2017-12-04T05:48:22.767Z,38.7
2017-12-04T05:49:24.369Z,38.9
2017-12-04T05:50:25.431Z,38.9
2017-12-04T05:51:26.496Z,38.8
2017-12-04T05:52:28.392Z,39
2017-12-04T05:53:30.300Z,38.9
2017-12-04T05:54:32.254Z,38.9
2017-12-04T05:55:33.850Z,38.9
2017-12-04T05:56:35.473Z,39
2017-12-04T05:57:36.789Z,38.8
2017-12-04T05:58:38.406Z,39
2017-12-04T05:59:39.728Z,38.7
2017-12-04T06:00:41.049Z,38.8
2017-12-04T06:01:42.955Z,38.9
2017-12-04T06:02:44.576Z,38.9
2017-12-04T06:03:46.466Z,38.8
2017-12-04T06:04:47.786Z,38.8
2017-12-04T06:05:49.684Z,39
2017-12-04T06:06:51.301Z,39.1
2017-12-04T06:07:53.197Z,38.8
2017-12-04T06:08:54.793Z,38.7
2017-12-04T06:09:56.410Z,39
2017-12-04T06:10:58.307Z,38.8
2017-12-04T06:11:59.904Z,39
2017-12-04T06:13:01.522Z,38.8
2017-12-04T06:14:03.140Z,38.8
2017-12-04T06:15:04.760Z,38.9
2017-12-04T06:16:06.380Z,38.7
2017-12-04T06:17:07.978Z,38.9
2017-12-04T06:18:09.576Z,38.8
2017-12-04T06:19:10.914Z,38.6
2017-12-04T06:20:12.532Z,38.8
2017-12-04T06:21:13.874Z,39
2017-12-04T06:22:15.769Z,38.4
2017-12-04T06:23:17.678Z,38.4
2017-12-04T06:24:19.574Z,38.9
2017-12-04T06:25:21.231Z,38.4
2017-12-04T06:26:22.575Z,38.8
2017-12-04T06:27:24.513Z,38.4
2017-12-04T06:28:26.132Z,38.8
2017-12-04T06:29:27.542Z,38.4
2017-12-04T06:30:29.136Z,38.4
2017-12-04T06:31:30.755Z,38.4
2017-12-04T06:32:32.119Z,38.8
2017-12-04T06:33:33.736Z,38.4
2017-12-04T06:34:35.662Z,38.4
2017-12-04T06:35:37.281Z,38.4
2017-12-04T06:36:39.179Z,38.5
2017-12-04T06:37:41.075Z,38.3
2017-12-04T06:38:42.691Z,38.8
2017-12-04T06:39:44.289Z,38.9
2017-12-04T06:40:45.906Z,38.5
2017-12-04T06:41:47.525Z,38.7
2017-12-04T06:42:48.844Z,38.8
2017-12-04T06:43:50.740Z,38.7
2017-12-04T06:44:52.360Z,38.4
2017-12-04T06:45:53.686Z,38.8
2017-12-04T06:46:55.282Z,38.4
2017-12-04T06:47:56.605Z,38.3
2017-12-04T06:48:58.223Z,38.4
2017-12-04T06:49:59.546Z,38.4
2017-12-04T06:51:01.215Z,38.4
2017-12-04T06:52:02.837Z,38.2
2017-12-04T06:53:04.160Z,38.8
2017-12-04T06:54:05.760Z,38.5
2017-12-04T06:55:07.379Z,38.4
2017-12-04T06:56:08.757Z,38.4
2017-12-04T06:57:10.105Z,38.7
2017-12-04T06:58:11.999Z,38.8
2017-12-04T06:59:13.343Z,38.8
2017-12-04T07:00:14.959Z,38.9
2017-12-04T07:01:16.578Z,38.8
2017-12-04T07:02:18.177Z,38.7
2017-12-04T07:03:19.800Z,38.7
2017-12-04T07:04:21.400Z,38.4
2017-12-04T07:05:23.025Z,38.5
2017-12-04T07:06:24.623Z,38.2
2017-12-04T07:07:26.520Z,38.4
2017-12-04T07:08:28.138Z,38.8
2017-12-04T07:09:29.760Z,38.8
2017-12-04T07:10:31.359Z,38.3
2017-12-04T07:11:32.985Z,38.4
2017-12-04T07:12:34.309Z,38.4
2017-12-04T07:13:35.929Z,38.9
2017-12-04T07:14:37.551Z,38.4
2017-12-04T07:15:39.168Z,38.4
2017-12-04T07:16:40.788Z,38.8
2017-12-04T07:17:42.687Z,38.8
2017-12-04T07:18:44.626Z,38.5
2017-12-04T07:19:45.677Z,38.9
2017-12-04T07:20:47.019Z,39
2017-12-04T07:21:48.642Z,38.4
2017-12-04T07:22:50.239Z,38.4
2017-12-04T07:23:52.134Z,38.4
2017-12-04T07:24:52.902Z,38.8
2017-12-04T07:25:54.524Z,38.4
2017-12-04T07:26:56.143Z,38.3
2017-12-04T07:27:57.761Z,38.8
2017-12-04T07:28:59.379Z,38.4
2017-12-04T07:30:00.997Z,39
2017-12-04T07:31:02.898Z,39
2017-12-04T07:32:04.533Z,38.4
2017-12-04T07:33:05.560Z,38.9
2017-12-04T07:34:07.180Z,38.8
2017-12-04T07:35:09.095Z,38.9
2017-12-04T07:36:10.716Z,38.8
2017-12-04T07:37:12.336Z,39
2017-12-04T07:38:13.956Z,38.9
2017-12-04T07:39:15.582Z,38.6
2017-12-04T07:40:17.203Z,38.8
2017-12-04T07:41:18.526Z,38.7
2017-12-04T07:42:20.196Z,38.6
2017-12-04T07:43:21.519Z,38.9
2017-12-04T07:44:23.134Z,38.7
2017-12-04T07:45:24.453Z,38.8
2017-12-04T07:46:25.778Z,38.9
2017-12-04T07:47:27.678Z,38.9
2017-12-04T07:48:29.299Z,38.9
2017-12-04T07:49:30.918Z,38.9
2017-12-04T07:50:32.521Z,38.9
2017-12-04T07:51:34.421Z,38.7
2017-12-04T07:52:35.765Z,38.7
2017-12-04T07:53:37.384Z,38.9
2017-12-04T07:54:39.000Z,38.9
2017-12-04T07:55:40.602Z,39
2017-12-04T07:56:42.223Z,38.8
2017-12-04T07:57:43.546Z,38.9
2017-12-04T07:58:45.164Z,38.9
2017-12-04T07:59:46.597Z,39.1
2017-12-04T08:00:47.362Z,38.8
2017-12-04T08:01:49.286Z,38.7
2017-12-04T08:02:50.616Z,38.8
2017-12-04T08:03:52.512Z,39.2
2017-12-04T08:04:54.410Z,38.8
2017-12-04T08:05:56.229Z,38.9
2017-12-04T08:06:57.858Z,38.9
2017-12-04T08:07:59.461Z,38.9
2017-12-04T08:09:00.785Z,38.9
2017-12-04T08:10:02.105Z,39.1
2017-12-04T08:11:03.722Z,39.3
2017-12-04T08:12:05.334Z,38.9
2017-12-04T08:13:06.679Z,38.9
2017-12-04T08:14:08.298Z,39
2017-12-04T08:15:10.212Z,38.9
2017-12-04T08:16:11.536Z,39.1
2017-12-04T08:17:13.154Z,39
2017-12-04T08:18:14.497Z,39.3
2017-12-04T08:19:16.130Z,39.1
2017-12-04T08:20:18.031Z,39
2017-12-04T08:21:19.356Z,39
2017-12-04T08:22:20.958Z,38.9
2017-12-04T08:23:22.855Z,38.9
2017-12-04T08:24:24.456Z,39.2
2017-12-04T08:25:26.076Z,38.9
2017-12-04T08:26:27.394Z,38.9
2017-12-04T08:27:29.024Z,39.3
2017-12-04T08:28:30.914Z,38.8
2017-12-04T08:29:32.535Z,39.2
2017-12-04T08:30:34.156Z,38.7
2017-12-04T08:31:36.058Z,39.3
2017-12-04T08:32:37.955Z,39.3
2017-12-04T08:33:39.559Z,39.2
2017-12-04T08:34:40.896Z,39.3
2017-12-04T08:35:42.520Z,39.3
2017-12-04T08:36:44.118Z,38.7
2017-12-04T08:37:46.014Z,39.3
2017-12-04T08:38:47.684Z,39.3
2017-12-04T08:39:49.581Z,39
2017-12-04T08:40:51.487Z,39
2017-12-04T08:41:53.373Z,39.4
2017-12-04T08:42:55.271Z,39.1
2017-12-04T08:43:56.612Z,38.8
2017-12-04T08:44:57.957Z,39.1
2017-12-04T08:45:59.853Z,39
2017-12-04T08:47:01.754Z,38.9
2017-12-04T08:48:03.373Z,38.8
2017-12-04T08:49:04.139Z,38.8
2017-12-04T08:50:05.757Z,39.3
2017-12-04T08:51:07.654Z,38.7
2017-12-04T08:52:09.306Z,38.9
2017-12-04T08:53:10.898Z,38.8
2017-12-04T08:54:12.288Z,38.7
2017-12-04T08:55:13.885Z,38.9
2017-12-04T08:56:14.927Z,38.8
2017-12-04T08:57:16.547Z,38.8
2017-12-04T08:58:18.146Z,38.8
2017-12-04T08:59:20.094Z,39.3
2017-12-04T09:00:21.991Z,39
2017-12-04T09:01:23.887Z,39
2017-12-04T09:02:25.228Z,39.1
2017-12-04T09:03:26.271Z,39.2
2017-12-04T09:04:28.175Z,39
2017-12-04T09:05:29.558Z,38.9
2017-12-04T09:06:31.160Z,39.1
2017-12-04T09:07:32.478Z,38.9
2017-12-04T09:08:33.819Z,39.3
2017-12-04T09:09:35.437Z,39.1
2017-12-04T09:10:37.335Z,38.5
2017-12-04T09:11:38.659Z,39.3
2017-12-04T09:12:40.585Z,39.3
2017-12-04T09:13:42.205Z,38.4
2017-12-04T09:14:43.268Z,39.1
2017-12-04T09:15:44.884Z,39.1
2017-12-04T09:16:46.505Z,39.2
2017-12-04T09:17:48.401Z,38.6
2017-12-04T09:18:50.021Z,38.4
2017-12-04T09:19:51.341Z,38.4
2017-12-04T09:20:53.241Z,39.3
2017-12-04T09:21:54.857Z,38.5
2017-12-04T09:22:56.178Z,39.2
2017-12-04T09:23:57.523Z,39
2017-12-04T09:24:59.420Z,39
2017-12-04T09:26:00.784Z,38.9
2017-12-04T09:27:02.106Z,39.2
2017-12-04T09:28:03.430Z,39
2017-12-04T09:29:04.774Z,39
2017-12-04T09:30:06.116Z,38.5
2017-12-04T09:31:07.435Z,39
2017-12-04T09:32:08.779Z,39.1
2017-12-04T09:33:10.400Z,39.1
2017-12-04T09:34:12.297Z,38.9
2017-12-04T09:35:14.195Z,38.5
2017-12-04T09:36:16.095Z,38.5
2017-12-04T09:37:17.697Z,38.6
2017-12-04T09:38:19.319Z,39.2
2017-12-04T09:39:20.640Z,38.9
2017-12-04T09:40:21.960Z,39.1
2017-12-04T09:41:23.289Z,38.6
2017-12-04T09:42:24.888Z,38.9
2017-12-04T09:43:26.518Z,38.5
2017-12-04T09:44:27.826Z,39.3
2017-12-04T09:45:29.424Z,39.2
2017-12-04T09:46:31.045Z,38.4
2017-12-04T09:47:32.939Z,39
2017-12-04T09:48:34.835Z,39.3
2017-12-04T09:49:36.458Z,39.1
2017-12-04T09:50:38.076Z,38.9
2017-12-04T09:51:39.972Z,38.9
2017-12-04T09:52:41.570Z,39.3
2017-12-04T09:53:42.887Z,38.9
2017-12-04T09:54:44.212Z,39
2017-12-04T09:55:45.554Z,38.4
2017-12-04T09:56:47.174Z,39.1
2017-12-04T09:57:49.070Z,39.2
2017-12-04T09:58:50.688Z,39.2
2017-12-04T09:59:52.583Z,39
2017-12-04T10:00:54.480Z,39.1
2017-12-04T10:01:55.802Z,39.1
2017-12-04T10:02:57.698Z,38.9
2017-12-04T10:03:59.318Z,39
2017-12-04T10:05:00.937Z,38.9
2017-12-04T10:06:01.987Z,39.2
2017-12-04T10:07:03.033Z,38.5
2017-12-04T10:08:04.629Z,39
2017-12-04T10:09:06.252Z,39.1
2017-12-04T10:10:07.851Z,39
2017-12-04T10:11:09.198Z,39.1
2017-12-04T10:12:10.819Z,39.1
2017-12-04T10:13:12.436Z,39.3
2017-12-04T10:14:13.499Z,39.2
2017-12-04T10:15:15.114Z,39
2017-12-04T10:16:17.011Z,39
2017-12-04T10:17:18.353Z,39.2
2017-12-04T10:18:19.699Z,38.8
2017-12-04T10:19:21.318Z,38.8
2017-12-04T10:20:22.641Z,39.2
2017-12-04T10:21:24.113Z,38.8
2017-12-04T10:22:25.730Z,39.4
2017-12-04T10:23:26.499Z,38.9
2017-12-04T10:24:28.100Z,39.1
2017-12-04T10:25:29.719Z,39
2017-12-04T10:26:31.651Z,38.9
2017-12-04T10:27:32.714Z,38.9
2017-12-04T10:28:34.332Z,39.3
2017-12-04T10:29:36.229Z,38.7
2017-12-04T10:30:37.830Z,38.9
2017-12-04T10:31:39.733Z,39.3
2017-12-04T10:32:41.630Z,38.9
2017-12-04T10:33:43.250Z,39.3
2017-12-04T10:34:44.601Z,39.3
2017-12-04T10:35:45.921Z,39
2017-12-04T10:36:47.815Z,38.9
2017-12-04T10:37:49.431Z,38.8
2017-12-04T10:38:51.060Z,38.8
2017-12-04T10:39:52.405Z,38.9
2017-12-04T10:40:54.029Z,38.8
2017-12-04T10:41:55.931Z,38.7
2017-12-04T10:42:57.826Z,38.9
2017-12-04T10:43:59.723Z,39
2017-12-04T10:45:01.342Z,39.5
2017-12-04T10:46:03.252Z,39
2017-12-04T10:47:04.879Z,39
2017-12-04T10:48:06.496Z,39.1
2017-12-04T10:49:08.117Z,38.8
2017-12-04T10:50:10.015Z,39.1
2017-12-04T10:51:11.917Z,39.5
2017-12-04T10:52:13.235Z,39.5
2017-12-04T10:53:14.575Z,39
2017-12-04T10:54:16.172Z,39.5
2017-12-04T10:55:18.072Z,39.4
2017-12-04T10:56:19.694Z,39.1
2017-12-04T10:57:21.309Z,39.3
2017-12-04T10:58:22.905Z,39.3
2017-12-04T10:59:24.545Z,39.3
2017-12-04T11:00:25.857Z,39.3
2017-12-04T11:01:27.753Z,39.3
2017-12-04T11:02:29.098Z,39.3
2017-12-04T11:03:30.442Z,39.2
2017-12-04T11:04:32.100Z,39.4
2017-12-04T11:05:34.003Z,39.2
2017-12-04T11:06:35.948Z,39.1
2017-12-04T11:07:37.011Z,39.1
2017-12-04T11:08:38.646Z,39.4
2017-12-04T11:09:40.251Z,39.1
2017-12-04T11:10:41.591Z,39.2
2017-12-04T11:11:43.515Z,39.2
2017-12-04T11:12:44.559Z,39.1
2017-12-04T11:13:46.458Z,39.2
2017-12-04T11:14:48.393Z,39.1
2017-12-04T11:15:50.013Z,39.3
2017-12-04T11:16:51.648Z,39.4
2017-12-04T11:17:53.271Z,39.3
2017-12-04T11:18:54.594Z,39.2
2017-12-04T11:19:55.937Z,39.2
2017-12-04T11:20:57.281Z,39.1
2017-12-04T11:21:58.899Z,39.5
2017-12-04T11:23:00.499Z,38.8
2017-12-04T11:24:02.122Z,39
2017-12-04T11:25:03.742Z,39
2017-12-04T11:26:05.568Z,39.1
2017-12-04T11:27:07.508Z,39
2017-12-04T11:28:09.128Z,38.9
2017-12-04T11:29:11.030Z,39.5
2017-12-04T11:30:12.651Z,39
2017-12-04T11:31:14.269Z,38.9
2017-12-04T11:32:15.886Z,38.9
2017-12-04T11:33:17.546Z,39.4
2017-12-04T11:34:19.170Z,38.9
2017-12-04T11:35:20.790Z,38.8
2017-12-04T11:36:22.684Z,39.5
2017-12-04T11:37:24.581Z,39.1
2017-12-04T11:38:26.200Z,38.9
2017-12-04T11:39:27.523Z,38.9
2017-12-04T11:40:29.424Z,38.8
2017-12-04T11:41:30.763Z,38.9
2017-12-04T11:42:32.660Z,39.1
2017-12-04T11:43:34.022Z,39.5
2017-12-04T11:44:35.639Z,39.5
2017-12-04T11:45:36.962Z,39.4
2017-12-04T11:46:38.860Z,39.2
2017-12-04T11:47:40.195Z,39.5
2017-12-04T11:48:41.816Z,39.3
2017-12-04T11:49:43.162Z,39.1
2017-12-04T11:50:44.486Z,39.1
2017-12-04T11:51:46.389Z,39.5
2017-12-04T11:52:48.283Z,39.5
2017-12-04T11:53:49.891Z,39.5
2017-12-04T11:54:50.926Z,39.3
2017-12-04T11:55:52.545Z,39.1
2017-12-04T11:56:54.201Z,39.2
2017-12-04T11:57:55.802Z,39.1
2017-12-04T11:58:57.425Z,39.3
2017-12-04T11:59:58.496Z,39.3
2017-12-04T12:00:59.822Z,39.5
2017-12-04T12:02:01.439Z,39.4
2017-12-04T12:03:03.389Z,39.4
2017-12-04T12:04:05.285Z,39.4
2017-12-04T12:05:06.628Z,39.2
2017-12-04T12:06:08.250Z,39.4
2017-12-04T12:07:09.849Z,39.1
2017-12-04T12:08:11.176Z,39.3
2017-12-04T12:09:12.243Z,39.3
2017-12-04T12:10:13.583Z,39
2017-12-04T12:11:14.928Z,39.2
2017-12-04T12:12:16.826Z,39.3
2017-12-04T12:13:18.726Z,39.4
2017-12-04T12:14:20.071Z,39.4
2017-12-04T12:15:21.694Z,39.1
2017-12-04T12:16:23.311Z,39
2017-12-04T12:17:24.916Z,39
2017-12-04T12:18:26.256Z,39.1
2017-12-04T12:19:27.598Z,39.3
2017-12-04T12:20:29.493Z,39.1
2017-12-04T12:21:31.111Z,39.3
2017-12-04T12:22:33.012Z,39.3
2017-12-04T12:23:34.635Z,39.2
2017-12-04T12:24:36.257Z,39.2
2017-12-04T12:25:38.151Z,39.3
2017-12-04T12:26:39.215Z,39.1
2017-12-04T12:27:40.837Z,39.2
2017-12-04T12:28:42.743Z,39.3
2017-12-04T12:29:44.365Z,39.3
2017-12-04T12:30:46.259Z,39.5
2017-12-04T12:31:47.855Z,39.5
2017-12-04T12:32:49.775Z,39
2017-12-04T12:33:51.401Z,39.7
2017-12-04T12:34:53.003Z,39.6
2017-12-04T12:35:54.904Z,39.3
2017-12-04T12:36:56.800Z,39.1
2017-12-04T12:37:58.698Z,39.6
2017-12-04T12:39:00.043Z,39.7
2017-12-04T12:40:01.643Z,39
2017-12-04T12:41:03.540Z,39.4
2017-12-04T12:42:05.167Z,39.3
2017-12-04T12:43:06.786Z,39.2
2017-12-04T12:44:08.111Z,39.5
2017-12-04T12:45:10.006Z,39.5
2017-12-04T12:46:11.907Z,39.3
2017-12-04T12:47:13.525Z,39.5
2017-12-04T12:48:15.123Z,39.3
2017-12-04T12:49:17.023Z,39.7
2017-12-04T12:50:18.070Z,39.5
2017-12-04T12:51:19.969Z,39.7
2017-12-04T12:52:21.288Z,39.5
2017-12-04T12:53:23.183Z,39.5
2017-12-04T12:54:25.082Z,39.6
2017-12-04T12:55:26.991Z,39.6
2017-12-04T12:56:28.594Z,39.3
2017-12-04T12:57:30.209Z,39.8
2017-12-04T12:58:32.109Z,39.6
2017-12-04T12:59:33.730Z,39.8
2017-12-04T13:00:35.351Z,39.5
2017-12-04T13:01:37.248Z,39.4
2017-12-04T13:02:39.142Z,39.7
2017-12-04T13:03:40.482Z,39.5
2017-12-04T13:04:41.582Z,39.3
2017-12-04T13:05:43.475Z,39.5
2017-12-04T13:06:44.513Z,39.9
2017-12-04T13:07:46.409Z,39.8
2017-12-04T13:08:47.731Z,39.9
2017-12-04T13:09:49.053Z,39.6
2017-12-04T13:10:50.948Z,39.6
2017-12-04T13:11:52.569Z,39.9
2017-12-04T13:12:54.192Z,40
2017-12-04T13:13:55.256Z,39.9
2017-12-04T13:14:56.920Z,40.1
2017-12-04T13:15:58.542Z,39.8
2017-12-04T13:16:59.887Z,40
2017-12-04T13:18:01.507Z,39.8
2017-12-04T13:19:03.108Z,39.5
2017-12-04T13:20:05.009Z,39.9
2017-12-04T13:21:06.629Z,40.1
2017-12-04T13:22:08.232Z,39.8
2017-12-04T13:23:09.828Z,39.9
2017-12-04T13:24:11.449Z,39.9
2017-12-04T13:25:13.350Z,39.8
2017-12-04T13:26:14.671Z,39.9
2017-12-04T13:27:16.565Z,39.8
2017-12-04T13:28:18.467Z,40
2017-12-04T13:29:20.062Z,39.9
2017-12-04T13:30:21.680Z,39.8
2017-12-04T13:31:23.577Z,39.9
2017-12-04T13:32:25.202Z,39.9
2017-12-04T13:33:27.097Z,39.7
2017-12-04T13:34:28.715Z,39.7
2017-12-04T13:35:30.415Z,39.9
2017-12-04T13:36:31.754Z,39.8
2017-12-04T13:37:33.074Z,39.8
2017-12-04T13:38:34.971Z,39.8
2017-12-04T13:39:36.310Z,39.9
2017-12-04T13:40:37.930Z,40.2
2017-12-04T13:41:38.975Z,39.7
2017-12-04T13:42:40.872Z,40.1
2017-12-04T13:43:42.192Z,39.8